sensor_id;sensor_type;location;lat;lon;timestamp;temperature;humidity
42833;DHT22;28479;51.478;5.692;2022-10-03T10:08:25;16.00;99.90
42833;DHT22;28479;51.478;5.692;2022-10-03T10:22:02;16.20;99.90
42833;DHT22;28479;51.478;5.692;2022-10-03T10:27:37;16.30;99.90
42833;DHT22;28479;51.478;5.692;2022-10-03T10:31:29;16.30;99.90
42833;DHT22;28479;51.478;5.692;2022-10-03T10:33:41;16.30;99.90
42833;DHT22;28479;51.478;5.692;2022-10-03T10:59:24;16.20;99.90
42833;DHT22;28479;51.478;5.692;2022-10-03T11:08:15;17.30;99.90
42833;DHT22;28479;51.478;5.692;2022-10-03T11:14:02;17.20;99.90
42833;DHT22;28479;51.478;5.692;2022-10-03T11:51:46;17.30;99.90
42833;DHT22;28479;51.478;5.692;2022-10-03T11:54:30;17.20;99.90
42833;DHT22;28479;51.478;5.692;2022-10-03T11:56:59;17.30;99.90
42833;DHT22;28479;51.478;5.692;2022-10-03T12:07:44;17.60;99.90
42833;DHT22;28479;51.478;5.692;2022-10-03T12:13:16;18.20;99.90
42833;DHT22;28479;51.478;5.692;2022-10-03T12:15:54;18.40;99.90
42833;DHT22;28479;51.478;5.692;2022-10-03T12:21:21;18.20;99.90
42833;DHT22;28479;51.478;5.692;2022-10-03T12:24:14;18.00;99.90
42833;DHT22;28479;51.478;5.692;2022-10-03T12:29:19;17.90;99.90
42833;DHT22;28479;51.478;5.692;2022-10-03T12:34:47;18.20;99.90
42833;DHT22;28479;51.478;5.692;2022-10-03T12:42:34;18.10;99.90
42833;DHT22;28479;51.478;5.692;2022-10-03T12:50:56;18.70;99.90
42833;DHT22;28479;51.478;5.692;2022-10-03T12:53:33;18.80;99.90
42833;DHT22;28479;51.478;5.692;2022-10-03T13:02:21;18.90;99.90
42833;DHT22;28479;51.478;5.692;2022-10-03T13:05:16;18.90;99.90
42833;DHT22;28479;51.478;5.692;2022-10-03T13:14:24;19.60;99.90
42833;DHT22;28479;51.478;5.692;2022-10-03T13:17:12;19.60;99.90
42833;DHT22;28479;51.478;5.692;2022-10-03T13:20:02;19.50;99.90
42833;DHT22;28479;51.478;5.692;2022-10-03T13:23:02;19.50;99.90
42833;DHT22;28479;51.478;5.692;2022-10-03T13:25:44;19.40;99.90
42833;DHT22;28479;51.478;5.692;2022-10-03T13:28:17;19.40;99.90
42833;DHT22;28479;51.478;5.692;2022-10-03T13:30:52;19.20;99.90
42833;DHT22;28479;51.478;5.692;2022-10-03T13:33:25;19.30;99.90
42833;DHT22;28479;51.478;5.692;2022-10-03T13:36:04;19.50;99.90
42833;DHT22;28479;51.478;5.692;2022-10-03T13:39:02;19.70;99.90
42833;DHT22;28479;51.478;5.692;2022-10-03T13:44:36;19.80;99.90
42833;DHT22;28479;51.478;5.692;2022-10-03T13:47:17;20.10;99.90
42833;DHT22;28479;51.478;5.692;2022-10-03T13:49:53;19.90;99.90
42833;DHT22;28479;51.478;5.692;2022-10-03T14:01:49;19.60;99.90
42833;DHT22;28479;51.478;5.692;2022-10-03T14:04:24;19.40;99.90
42833;DHT22;28479;51.478;5.692;2022-10-03T14:18:28;19.30;99.90
42833;DHT22;28479;51.478;5.692;2022-10-03T14:26:39;19.10;99.90
42833;DHT22;28479;51.478;5.692;2022-10-03T14:37:33;19.00;99.90
42833;DHT22;28479;51.478;5.692;2022-10-03T14:45:50;18.80;99.90
42833;DHT22;28479;51.478;5.692;2022-10-03T14:48:21;18.80;99.90
42833;DHT22;28479;51.478;5.692;2022-10-03T14:50:54;18.70;99.90
42833;DHT22;28479;51.478;5.692;2022-10-03T14:53:27;18.70;99.90
42833;DHT22;28479;51.478;5.692;2022-10-03T14:56:04;18.70;99.90
42833;DHT22;28479;51.478;5.692;2022-10-03T14:58:45;18.60;99.90
42833;DHT22;28479;51.478;5.692;2022-10-03T15:01:15;18.60;99.90
42833;DHT22;28479;51.478;5.692;2022-10-03T15:04:03;18.50;99.90
42833;DHT22;28479;51.478;5.692;2022-10-03T15:09:22;18.20;99.90
42833;DHT22;28479;51.478;5.692;2022-10-03T15:11:57;18.10;99.90
42833;DHT22;28479;51.478;5.692;2022-10-03T15:14:27;18.00;99.90
42833;DHT22;28479;51.478;5.692;2022-10-03T15:16:55;18.00;99.90
42833;DHT22;28479;51.478;5.692;2022-10-03T15:19:24;17.90;99.90
42833;DHT22;28479;51.478;5.692;2022-10-03T15:21:53;17.90;99.90
42833;DHT22;28479;51.478;5.692;2022-10-03T15:24:22;17.90;99.90
42833;DHT22;28479;51.478;5.692;2022-10-03T15:26:54;17.90;99.90
42833;DHT22;28479;51.478;5.692;2022-10-03T15:29:23;17.90;99.90
42833;DHT22;28479;51.478;5.692;2022-10-03T15:31:53;17.90;99.90
42833;DHT22;28479;51.478;5.692;2022-10-03T15:34:29;17.90;99.90
42833;DHT22;28479;51.478;5.692;2022-10-03T15:37:03;17.90;99.90
42833;DHT22;28479;51.478;5.692;2022-10-03T15:39:38;17.90;99.90
42833;DHT22;28479;51.478;5.692;2022-10-03T15:42:19;17.90;99.90
42833;DHT22;28479;51.478;5.692;2022-10-03T15:45:02;17.90;99.90
42833;DHT22;28479;51.478;5.692;2022-10-03T15:47:34;17.90;99.90
42833;DHT22;28479;51.478;5.692;2022-10-03T15:50:14;17.80;99.90
42833;DHT22;28479;51.478;5.692;2022-10-03T15:55:35;17.80;99.90
42833;DHT22;28479;51.478;5.692;2022-10-03T15:58:16;17.70;99.90
42833;DHT22;28479;51.478;5.692;2022-10-03T16:00:55;17.70;99.90
42833;DHT22;28479;51.478;5.692;2022-10-03T16:03:32;17.70;99.90
42833;DHT22;28479;51.478;5.692;2022-10-03T16:08:28;17.70;99.90
42833;DHT22;28479;51.478;5.692;2022-10-03T16:11:21;17.70;99.90
42833;DHT22;28479;51.478;5.692;2022-10-03T16:17:09;17.90;99.90
42833;DHT22;28479;51.478;5.692;2022-10-03T16:19:39;17.90;99.90
42833;DHT22;28479;51.478;5.692;2022-10-03T16:22:23;17.90;99.90
42833;DHT22;28479;51.478;5.692;2022-10-03T16:27:28;17.70;99.90
42833;DHT22;28479;51.478;5.692;2022-10-03T16:33:19;17.50;99.90
42833;DHT22;28479;51.478;5.692;2022-10-03T16:35:56;17.30;99.90
42833;DHT22;28479;51.478;5.692;2022-10-03T16:38:31;17.20;99.90
42833;DHT22;28479;51.478;5.692;2022-10-03T16:40:59;17.00;99.90
42833;DHT22;28479;51.478;5.692;2022-10-03T16:43:29;16.80;99.90
42833;DHT22;28479;51.478;5.692;2022-10-03T16:45:59;16.70;99.90
42833;DHT22;28479;51.478;5.692;2022-10-03T16:48:31;16.70;99.90
42833;DHT22;28479;51.478;5.692;2022-10-03T16:53:43;16.50;99.90
42833;DHT22;28479;51.478;5.692;2022-10-03T16:56:13;16.30;99.90
42833;DHT22;28479;51.478;5.692;2022-10-03T16:58:46;16.20;99.90
42833;DHT22;28479;51.478;5.692;2022-10-03T17:01:25;16.10;99.90
42833;DHT22;28479;51.478;5.692;2022-10-03T17:06:33;15.90;99.90
42833;DHT22;28479;51.478;5.692;2022-10-03T17:11:51;15.80;99.90
42833;DHT22;28479;51.478;5.692;2022-10-03T17:14:19;15.70;99.90
42833;DHT22;28479;51.478;5.692;2022-10-03T17:16:49;15.50;99.90
42833;DHT22;28479;51.478;5.692;2022-10-03T17:22:05;15.10;99.90
42833;DHT22;28479;51.478;5.692;2022-10-03T17:24:45;15.00;99.90
42833;DHT22;28479;51.478;5.692;2022-10-03T17:27:22;14.90;99.90
42833;DHT22;28479;51.478;5.692;2022-10-03T17:30:02;14.90;99.90
42833;DHT22;28479;51.478;5.692;2022-10-03T17:32:36;14.90;99.90
42833;DHT22;28479;51.478;5.692;2022-10-03T17:43:37;14.70;99.90
42833;DHT22;28479;51.478;5.692;2022-10-03T17:51:53;14.50;99.90
42833;DHT22;28479;51.478;5.692;2022-10-03T17:54:27;14.40;99.90
42833;DHT22;28479;51.478;5.692;2022-10-03T17:59:52;14.30;99.90
42833;DHT22;28479;51.478;5.692;2022-10-03T18:05:26;14.20;99.90
42833;DHT22;28479;51.478;5.692;2022-10-03T18:07:54;14.20;99.90
42833;DHT22;28479;51.478;5.692;2022-10-03T18:10:29;14.10;99.90
42833;DHT22;28479;51.478;5.692;2022-10-03T18:12:58;14.10;99.90
42833;DHT22;28479;51.478;5.692;2022-10-03T18:15:58;14.10;99.90
42833;DHT22;28479;51.478;5.692;2022-10-03T18:33:12;13.80;99.90
42833;DHT22;28479;51.478;5.692;2022-10-03T18:35:41;13.80;99.90
42833;DHT22;28479;51.478;5.692;2022-10-03T18:38:21;13.70;99.90
42833;DHT22;28479;51.478;5.692;2022-10-03T18:40:58;13.70;99.90
42833;DHT22;28479;51.478;5.692;2022-10-03T18:43:28;13.60;99.90
42833;DHT22;28479;51.478;5.692;2022-10-03T18:51:45;13.50;99.90
42833;DHT22;28479;51.478;5.692;2022-10-03T18:59:44;13.50;99.90
42833;DHT22;28479;51.478;5.692;2022-10-03T19:02:25;13.30;99.90
42833;DHT22;28479;51.478;5.692;2022-10-03T19:05:02;13.30;99.90
42833;DHT22;28479;51.478;5.692;2022-10-03T19:07:36;13.30;99.90
42833;DHT22;28479;51.478;5.692;2022-10-03T19:13:40;13.20;99.90
42833;DHT22;28479;51.478;5.692;2022-10-03T19:19:28;13.00;99.90
42833;DHT22;28479;51.478;5.692;2022-10-03T19:22:01;12.80;99.90
42833;DHT22;28479;51.478;5.692;2022-10-03T19:24:29;12.80;99.90
42833;DHT22;28479;51.478;5.692;2022-10-03T19:27:03;12.70;99.90
42833;DHT22;28479;51.478;5.692;2022-10-03T19:29:37;12.60;99.90
42833;DHT22;28479;51.478;5.692;2022-10-03T19:32:15;12.50;99.90
42833;DHT22;28479;51.478;5.692;2022-10-03T19:34:43;12.50;99.90
42833;DHT22;28479;51.478;5.692;2022-10-03T19:39:56;12.40;99.90
42833;DHT22;28479;51.478;5.692;2022-10-03T19:42:36;12.30;99.90
42833;DHT22;28479;51.478;5.692;2022-10-03T19:45:11;12.30;99.90
42833;DHT22;28479;51.478;5.692;2022-10-03T19:47:37;12.30;99.90
42833;DHT22;28479;51.478;5.692;2022-10-03T19:52:43;12.30;99.90
42833;DHT22;28479;51.478;5.692;2022-10-03T19:55:22;12.30;99.90
42833;DHT22;28479;51.478;5.692;2022-10-03T19:57:52;12.30;99.90
42833;DHT22;28479;51.478;5.692;2022-10-03T20:00:21;12.40;99.90
42833;DHT22;28479;51.478;5.692;2022-10-03T20:02:58;12.60;99.90
42833;DHT22;28479;51.478;5.692;2022-10-03T20:05:34;12.70;99.90
42833;DHT22;28479;51.478;5.692;2022-10-03T20:08:18;12.80;99.90
42833;DHT22;28479;51.478;5.692;2022-10-03T20:13:23;12.70;99.90
42833;DHT22;28479;51.478;5.692;2022-10-03T20:15:49;12.60;99.90
42833;DHT22;28479;51.478;5.692;2022-10-03T20:18:22;12.50;99.90
42833;DHT22;28479;51.478;5.692;2022-10-03T20:20:54;12.40;99.90
42833;DHT22;28479;51.478;5.692;2022-10-03T20:23:22;12.40;99.90
42833;DHT22;28479;51.478;5.692;2022-10-03T20:25:56;12.40;99.90
42833;DHT22;28479;51.478;5.692;2022-10-03T20:28:37;12.40;99.90
42833;DHT22;28479;51.478;5.692;2022-10-03T20:31:05;12.30;99.90
42833;DHT22;28479;51.478;5.692;2022-10-03T20:33:34;12.30;99.90
42833;DHT22;28479;51.478;5.692;2022-10-03T20:36:19;12.30;99.90
42833;DHT22;28479;51.478;5.692;2022-10-03T20:44:28;12.40;99.90
42833;DHT22;28479;51.478;5.692;2022-10-03T20:47:39;12.40;99.90
42833;DHT22;28479;51.478;5.692;2022-10-03T20:49:56;12.40;99.90
42833;DHT22;28479;51.478;5.692;2022-10-03T20:52:25;12.50;99.90
42833;DHT22;28479;51.478;5.692;2022-10-03T20:54:59;12.50;99.90
42833;DHT22;28479;51.478;5.692;2022-10-03T20:57:31;12.50;99.90
42833;DHT22;28479;51.478;5.692;2022-10-03T21:00:22;12.30;99.90
42833;DHT22;28479;51.478;5.692;2022-10-03T21:02:53;12.30;99.90
42833;DHT22;28479;51.478;5.692;2022-10-03T21:13:07;12.40;99.90
42833;DHT22;28479;51.478;5.692;2022-10-03T21:15:47;12.50;99.90
42833;DHT22;28479;51.478;5.692;2022-10-03T21:18:27;12.50;99.90
42833;DHT22;28479;51.478;5.692;2022-10-03T21:26:37;12.40;99.90
42833;DHT22;28479;51.478;5.692;2022-10-03T21:35:20;12.30;99.90
42833;DHT22;28479;51.478;5.692;2022-10-03T21:43:50;12.20;99.90
42833;DHT22;28479;51.478;5.692;2022-10-03T21:46:42;12.20;99.90
42833;DHT22;28479;51.478;5.692;2022-10-03T22:00:14;12.10;99.90
42833;DHT22;28479;51.478;5.692;2022-10-03T22:07:55;12.10;99.90
42833;DHT22;28479;51.478;5.692;2022-10-03T22:10:29;12.10;99.90
42833;DHT22;28479;51.478;5.692;2022-10-03T22:12:59;12.10;99.90
42833;DHT22;28479;51.478;5.692;2022-10-03T22:18:04;12.10;99.90
42833;DHT22;28479;51.478;5.692;2022-10-03T22:20:33;12.00;99.90
42833;DHT22;28479;51.478;5.692;2022-10-03T22:23:21;12.00;99.90
42833;DHT22;28479;51.478;5.692;2022-10-03T22:26:20;11.90;99.90
42833;DHT22;28479;51.478;5.692;2022-10-03T22:34:38;11.80;99.90
42833;DHT22;28479;51.478;5.692;2022-10-03T22:37:07;11.80;99.90
42833;DHT22;28479;51.478;5.692;2022-10-03T22:39:34;11.80;99.90
42833;DHT22;28479;51.478;5.692;2022-10-03T22:42:01;11.80;99.90
42833;DHT22;28479;51.478;5.692;2022-10-03T22:44:32;11.70;99.90
42833;DHT22;28479;51.478;5.692;2022-10-03T22:47:09;11.60;99.90
42833;DHT22;28479;51.478;5.692;2022-10-03T22:49:40;11.60;99.90
42833;DHT22;28479;51.478;5.692;2022-10-03T22:52:23;11.60;99.90
42833;DHT22;28479;51.478;5.692;2022-10-03T22:54:50;11.60;99.90
42833;DHT22;28479;51.478;5.692;2022-10-03T22:57:16;11.60;99.90
42833;DHT22;28479;51.478;5.692;2022-10-03T22:59:57;11.50;99.90
42833;DHT22;28479;51.478;5.692;2022-10-03T23:02:35;11.60;99.90
42833;DHT22;28479;51.478;5.692;2022-10-03T23:05:08;11.60;99.90
42833;DHT22;28479;51.478;5.692;2022-10-03T23:07:44;11.60;99.90
42833;DHT22;28479;51.478;5.692;2022-10-03T23:15:48;11.60;99.90
42833;DHT22;28479;51.478;5.692;2022-10-03T23:18:37;11.70;99.90
42833;DHT22;28479;51.478;5.692;2022-10-03T23:21:08;11.70;99.90
42833;DHT22;28479;51.478;5.692;2022-10-03T23:29:10;11.80;99.90
42833;DHT22;28479;51.478;5.692;2022-10-03T23:31:56;11.80;99.90
42833;DHT22;28479;51.478;5.692;2022-10-03T23:42:27;11.90;99.90
42833;DHT22;28479;51.478;5.692;2022-10-03T23:48:08;11.80;99.90
42833;DHT22;28479;51.478;5.692;2022-10-03T23:50:44;11.80;99.90
42833;DHT22;28479;51.478;5.692;2022-10-03T23:55:49;11.70;99.90
42833;DHT22;28479;51.478;5.692;2022-10-03T23:58:19;11.70;99.90
